createdAt,value
2022-12-02T00:00:58.279Z,9.20
2022-12-02T00:03:25.854Z,9.11
2022-12-02T00:05:55.535Z,9.09
2022-12-02T00:08:28.261Z,9.06
2022-12-02T00:10:57.493Z,8.97
2022-12-02T00:13:27.869Z,8.90
2022-12-02T00:15:59.110Z,8.84
2022-12-02T00:18:27.494Z,8.82
2022-12-02T00:20:55.797Z,8.86
2022-12-02T00:23:23.790Z,8.88
2022-12-02T00:25:53.369Z,8.88
2022-12-02T00:28:20.857Z,8.83
2022-12-02T00:30:47.873Z,8.88
2022-12-02T00:33:18.086Z,8.94
2022-12-02T00:35:45.541Z,8.98
2022-12-02T00:38:12.728Z,9.00
2022-12-02T00:40:39.759Z,9.05
2022-12-02T00:43:25.695Z,9.08
2022-12-02T00:46:11.889Z,9.02
2022-12-02T00:48:40.441Z,8.97
2022-12-02T00:51:07.537Z,8.99
2022-12-02T00:53:34.803Z,9.00
2022-12-02T00:56:01.799Z,8.96
2022-12-02T00:58:28.772Z,8.86
2022-12-02T01:00:55.850Z,8.70
2022-12-02T01:03:22.866Z,8.67
2022-12-02T01:05:51.197Z,8.70
2022-12-02T01:08:18.193Z,8.71
2022-12-02T01:10:45.237Z,8.70
2022-12-02T01:13:12.215Z,8.65
2022-12-02T01:15:39.212Z,8.59
2022-12-02T01:18:06.550Z,8.54
2022-12-02T01:20:33.928Z,8.54
2022-12-02T01:23:02.288Z,8.57
2022-12-02T01:25:29.271Z,8.58
2022-12-02T01:27:57.108Z,8.57
2022-12-02T01:30:24.153Z,8.53
2022-12-02T01:32:51.160Z,8.50
2022-12-02T01:35:18.587Z,8.47
2022-12-02T01:37:45.591Z,8.44
2022-12-02T01:40:16.068Z,8.38
2022-12-02T01:42:45.436Z,8.31
2022-12-02T01:45:13.759Z,8.32
2022-12-02T01:47:41.799Z,8.33
2022-12-02T01:50:12.104Z,8.33
2022-12-02T01:52:39.658Z,8.35
2022-12-02T01:55:12.041Z,8.38
2022-12-02T01:57:40.746Z,8.46
2022-12-02T02:00:09.903Z,8.55
2022-12-02T02:02:39.403Z,8.55
2022-12-02T02:05:11.364Z,8.54
2022-12-02T02:07:41.121Z,8.57
2022-12-02T02:10:10.047Z,8.60
2022-12-02T02:12:37.369Z,8.59
2022-12-02T02:15:09.604Z,8.59
2022-12-02T02:17:36.850Z,8.61
2022-12-02T02:20:09.438Z,8.64
2022-12-02T02:22:45.439Z,8.67
2022-12-02T02:25:20.507Z,8.70
2022-12-02T02:27:54.089Z,8.74
2022-12-02T02:30:21.731Z,8.76
2022-12-02T02:32:50.037Z,8.68
2022-12-02T02:35:19.483Z,8.70
2022-12-02T02:37:49.183Z,8.74
2022-12-02T02:40:18.909Z,8.79
2022-12-02T02:42:50.001Z,8.85
2022-12-02T02:45:17.973Z,8.87
2022-12-02T02:47:45.928Z,8.90
2022-12-02T02:50:13.317Z,8.95
2022-12-02T02:52:40.856Z,8.98
2022-12-02T02:55:12.312Z,9.01
2022-12-02T02:57:40.764Z,9.03
2022-12-02T03:00:09.989Z,8.95
2022-12-02T03:02:37.582Z,8.91
2022-12-02T03:05:06.276Z,8.89
2022-12-02T03:07:34.918Z,8.91
2022-12-02T03:10:02.926Z,8.84
2022-12-02T03:12:30.117Z,8.79
2022-12-02T03:15:00.229Z,8.70
2022-12-02T03:17:27.419Z,8.72
2022-12-02T03:19:54.830Z,8.73
2022-12-02T03:22:22.226Z,8.70
2022-12-02T03:24:49.593Z,8.69
2022-12-02T03:27:16.752Z,8.70
2022-12-02T03:29:44.215Z,8.74
2022-12-02T03:32:13.107Z,8.78
2022-12-02T03:34:42.281Z,8.80
2022-12-02T03:37:10.168Z,8.87
2022-12-02T03:39:37.889Z,8.92
2022-12-02T03:42:05.550Z,8.97
2022-12-02T03:44:32.766Z,8.99
2022-12-02T03:47:01.653Z,8.98
2022-12-02T03:49:32.753Z,8.94
2022-12-02T03:52:00.242Z,8.96
2022-12-02T03:54:27.549Z,8.94
2022-12-02T03:56:54.543Z,8.90
2022-12-02T03:59:26.355Z,8.89
2022-12-02T04:01:53.903Z,8.82
2022-12-02T04:04:20.903Z,8.77
2022-12-02T04:06:49.187Z,8.73
2022-12-02T04:09:16.367Z,8.69
2022-12-02T04:11:43.411Z,8.66
2022-12-02T04:14:10.399Z,8.65
2022-12-02T04:16:37.365Z,8.64
2022-12-02T04:19:04.296Z,8.66
2022-12-02T04:21:31.231Z,8.65
2022-12-02T04:23:59.530Z,8.62
2022-12-02T04:26:26.542Z,8.60
2022-12-02T04:28:53.509Z,8.59
2022-12-02T04:31:20.532Z,8.47
2022-12-02T04:33:47.551Z,8.30
2022-12-02T04:36:14.591Z,8.18
2022-12-02T04:38:41.533Z,8.06
2022-12-02T04:41:09.848Z,8.05
2022-12-02T04:43:36.795Z,8.05
2022-12-02T04:46:03.796Z,8.03
2022-12-02T04:48:30.810Z,8.01
2022-12-02T04:50:57.728Z,7.98
2022-12-02T04:53:25.000Z,7.98
2022-12-02T04:55:51.971Z,8.00
2022-12-02T04:58:20.275Z,8.05
2022-12-02T05:00:47.307Z,7.96
2022-12-02T05:03:14.313Z,7.95
2022-12-02T05:05:41.325Z,7.92
2022-12-02T05:08:08.368Z,7.96
2022-12-02T05:10:35.390Z,8.00
2022-12-02T05:13:02.394Z,8.00
2022-12-02T05:15:30.756Z,7.94
2022-12-02T05:17:57.707Z,7.93
2022-12-02T05:20:24.651Z,7.99
2022-12-02T05:22:51.907Z,8.06
2022-12-02T05:25:18.849Z,8.11
2022-12-02T05:27:45.799Z,8.12
2022-12-02T05:30:14.173Z,8.04
2022-12-02T05:32:42.449Z,8.01
2022-12-02T05:35:09.666Z,7.88
2022-12-02T05:37:36.615Z,7.79
2022-12-02T05:40:05.103Z,7.76
2022-12-02T05:42:34.305Z,7.74
2022-12-02T05:45:13.094Z,7.76
2022-12-02T05:47:40.119Z,7.73
2022-12-02T05:50:13.879Z,7.73
2022-12-02T05:52:43.628Z,7.81
2022-12-02T05:55:15.372Z,7.88
2022-12-02T05:57:42.835Z,7.95
2022-12-02T06:00:17.556Z,7.97
2022-12-02T06:02:48.518Z,7.93
2022-12-02T06:05:25.396Z,7.92
2022-12-02T06:07:56.965Z,7.91
2022-12-02T06:10:28.326Z,7.89
2022-12-02T06:13:01.581Z,7.90
2022-12-02T06:15:36.565Z,7.93
2022-12-02T06:18:12.595Z,7.91
2022-12-02T06:20:41.686Z,7.96
2022-12-02T06:23:14.462Z,7.94
2022-12-02T06:25:42.822Z,7.96
2022-12-02T06:28:25.551Z,7.99
2022-12-02T06:30:58.487Z,8.04
2022-12-02T06:33:31.271Z,8.11
2022-12-02T06:36:04.231Z,8.17
2022-12-02T06:38:42.356Z,8.23
2022-12-02T06:41:17.067Z,8.18
2022-12-02T06:44:03.984Z,8.16
2022-12-02T06:46:35.841Z,8.19
2022-12-02T06:49:16.330Z,8.15
2022-12-02T06:51:44.694Z,8.15
2022-12-02T06:54:20.563Z,8.16
2022-12-02T06:56:49.203Z,8.20
2022-12-02T06:59:21.714Z,8.23
2022-12-02T07:01:52.575Z,8.23
2022-12-02T07:04:35.416Z,8.23
2022-12-02T07:07:18.032Z,8.22
2022-12-02T07:09:49.048Z,8.23
2022-12-02T07:12:20.901Z,8.25
2022-12-02T07:14:51.568Z,8.30
2022-12-02T07:17:26.556Z,8.23
2022-12-02T07:20:02.915Z,8.24
2022-12-02T07:22:35.940Z,8.28
2022-12-02T07:25:34.240Z,8.27
2022-12-02T07:28:15.032Z,8.29
2022-12-02T07:30:42.876Z,8.32
2022-12-02T07:33:09.877Z,8.30
2022-12-02T07:35:36.819Z,8.27
2022-12-02T07:38:05.086Z,8.30
2022-12-02T07:40:32.023Z,8.27
2022-12-02T07:42:58.971Z,8.19
2022-12-02T07:45:26.071Z,8.18
2022-12-02T07:47:53.092Z,8.19
2022-12-02T07:50:20.159Z,8.19
2022-12-02T07:52:47.124Z,8.23
2022-12-02T07:55:21.462Z,8.28
2022-12-02T07:57:53.535Z,8.26
2022-12-02T08:00:22.763Z,8.29
2022-12-02T08:02:49.796Z,8.26
2022-12-02T08:05:17.011Z,8.26
2022-12-02T08:07:44.104Z,8.29
2022-12-02T08:10:12.078Z,8.33
2022-12-02T08:12:40.479Z,8.39
2022-12-02T08:15:09.844Z,8.39
2022-12-02T08:17:37.505Z,8.37
2022-12-02T08:20:07.391Z,8.33
2022-12-02T08:22:34.330Z,8.35
2022-12-02T08:25:01.429Z,8.39
2022-12-02T08:27:28.443Z,8.40
2022-12-02T08:29:56.741Z,8.37
2022-12-02T08:32:23.920Z,8.31
2022-12-02T08:34:51.208Z,8.30
2022-12-02T08:37:18.334Z,8.24
2022-12-02T08:39:45.310Z,8.19
2022-12-02T08:42:12.823Z,8.12
2022-12-02T08:44:39.758Z,8.12
2022-12-02T08:47:08.064Z,8.15
2022-12-02T08:49:35.056Z,8.22
2022-12-02T08:52:02.745Z,8.29
2022-12-02T08:54:29.822Z,8.29
2022-12-02T08:56:56.958Z,8.22
2022-12-02T08:59:29.869Z,8.10
2022-12-02T09:01:56.862Z,8.05
2022-12-02T09:04:25.493Z,8.10
2022-12-02T09:06:52.492Z,8.14
2022-12-02T09:09:19.545Z,8.21
2022-12-02T09:11:46.717Z,8.19
2022-12-02T09:14:13.713Z,8.21
2022-12-02T09:16:40.825Z,8.23
2022-12-02T09:19:08.808Z,8.27
2022-12-02T09:21:37.055Z,8.28
2022-12-02T09:24:04.875Z,8.26
2022-12-02T09:26:32.216Z,8.17
2022-12-02T09:28:59.526Z,8.15
2022-12-02T09:31:27.051Z,8.22
2022-12-02T09:33:54.520Z,8.21
2022-12-02T09:36:21.793Z,8.22
2022-12-02T09:38:51.902Z,8.22
2022-12-02T09:41:22.074Z,8.26
2022-12-02T09:43:50.750Z,8.30
2022-12-02T09:46:24.571Z,8.35
2022-12-02T09:48:52.528Z,8.33
2022-12-02T09:51:24.756Z,8.29
2022-12-02T09:53:54.215Z,8.31
2022-12-02T09:56:22.782Z,8.37
2022-12-02T09:58:53.376Z,8.35
2022-12-02T10:01:20.621Z,8.37
2022-12-02T10:03:51.089Z,8.40
2022-12-02T10:06:26.931Z,8.40
2022-12-02T10:08:58.106Z,8.42
2022-12-02T10:11:28.584Z,8.45
2022-12-02T10:13:59.175Z,8.48
2022-12-02T10:16:28.030Z,8.46
2022-12-02T10:19:02.951Z,8.40
2022-12-02T10:21:30.582Z,8.41
2022-12-02T10:24:01.901Z,8.48
2022-12-02T10:26:50.082Z,8.43
2022-12-02T10:29:25.970Z,8.50
2022-12-02T10:31:57.632Z,8.54
2022-12-02T10:34:26.237Z,8.57
2022-12-02T10:36:54.734Z,8.65
2022-12-02T10:39:37.806Z,8.72
2022-12-02T10:42:21.591Z,8.68
2022-12-02T10:45:15.644Z,8.57
2022-12-02T10:47:42.816Z,8.61
2022-12-02T10:50:20.531Z,8.62
2022-12-02T10:52:55.522Z,8.59
2022-12-02T10:55:26.692Z,8.55
2022-12-02T10:57:55.861Z,8.53
2022-12-02T11:00:28.394Z,8.49
2022-12-02T11:02:58.645Z,8.46
2022-12-02T11:05:31.270Z,8.42
2022-12-02T11:08:09.240Z,8.48
2022-12-02T11:10:41.088Z,8.55
2022-12-02T11:13:32.482Z,8.53
2022-12-02T11:17:02.608Z,8.58
2022-12-02T11:19:46.834Z,8.64
2022-12-02T11:23:06.237Z,8.60
2022-12-02T11:25:57.265Z,8.61
2022-12-02T11:28:47.498Z,8.55
2022-12-02T11:31:23.889Z,8.49
2022-12-02T11:34:06.101Z,8.50
2022-12-02T11:36:36.265Z,8.57
2022-12-02T11:39:10.055Z,8.62
2022-12-02T11:42:23.535Z,8.71
2022-12-02T11:44:51.856Z,8.76
2022-12-02T11:47:30.562Z,8.78
2022-12-02T11:50:22.067Z,8.84
2022-12-02T11:52:56.569Z,8.85
2022-12-02T11:55:33.176Z,8.78
2022-12-02T11:58:04.380Z,8.70
2022-12-02T12:01:21.708Z,8.58
2022-12-02T12:03:52.698Z,8.56
2022-12-02T12:06:25.355Z,8.61
2022-12-02T12:08:56.744Z,8.59
2022-12-02T12:11:27.043Z,8.63
2022-12-02T12:14:02.648Z,8.64
2022-12-02T12:16:35.028Z,8.65
2022-12-02T12:19:04.843Z,8.61
2022-12-02T12:21:47.782Z,8.64
2022-12-02T12:24:34.882Z,8.65
2022-12-02T12:27:32.740Z,8.62
2022-12-02T12:30:01.919Z,8.61
2022-12-02T12:32:29.375Z,8.61
2022-12-02T12:34:57.260Z,8.69
2022-12-02T12:37:29.577Z,8.78
2022-12-02T12:39:56.859Z,8.90
2022-12-02T12:42:24.431Z,8.99
2022-12-02T12:44:54.783Z,8.98
2022-12-02T12:47:23.675Z,8.93
2022-12-02T12:49:51.075Z,8.91
2022-12-02T12:52:18.419Z,8.88
2022-12-02T12:54:50.795Z,8.86
2022-12-02T12:57:20.086Z,8.91
2022-12-02T12:59:47.158Z,8.95
2022-12-02T13:02:16.871Z,8.95
2022-12-02T13:04:45.234Z,8.94
2022-12-02T13:07:14.854Z,8.94
2022-12-02T13:09:41.925Z,8.90
2022-12-02T13:12:12.904Z,8.80
2022-12-02T13:14:41.233Z,8.76
2022-12-02T13:17:08.479Z,8.73
2022-12-02T13:19:35.552Z,8.79
2022-12-02T13:22:03.918Z,8.79
2022-12-02T13:24:33.239Z,8.77
2022-12-02T13:27:01.551Z,8.79
2022-12-02T13:29:28.571Z,8.83
2022-12-02T13:31:55.575Z,8.84
2022-12-02T13:34:22.569Z,8.90
2022-12-02T13:36:49.502Z,8.93
2022-12-02T13:39:17.871Z,8.94
2022-12-02T13:41:44.812Z,8.83
2022-12-02T13:44:11.751Z,8.82
2022-12-02T13:46:38.749Z,8.85
2022-12-02T13:49:05.717Z,8.87
2022-12-02T13:51:32.738Z,8.89
2022-12-02T13:53:59.840Z,8.95
2022-12-02T13:56:28.726Z,9.03
2022-12-02T13:58:56.538Z,9.06
2022-12-02T14:01:23.693Z,9.12
2022-12-02T14:03:51.253Z,9.13
2022-12-02T14:06:21.240Z,9.17
2022-12-02T14:08:48.298Z,9.19
2022-12-02T14:11:15.412Z,9.15
2022-12-02T14:13:43.656Z,9.15
2022-12-02T14:16:10.708Z,9.01
2022-12-02T14:18:37.926Z,8.90
2022-12-02T14:21:05.296Z,8.80
2022-12-02T14:23:32.307Z,8.71
2022-12-02T14:25:59.355Z,8.67
2022-12-02T14:28:26.429Z,8.63
2022-12-02T14:30:54.907Z,8.55
2022-12-02T14:33:25.275Z,8.59
2022-12-02T14:35:55.403Z,8.47
2022-12-02T14:38:22.574Z,8.34
2022-12-02T14:40:49.585Z,8.33
2022-12-02T14:43:16.577Z,8.33
2022-12-02T14:45:43.591Z,8.34
2022-12-02T14:48:11.997Z,8.39
2022-12-02T14:50:39.092Z,8.45
2022-12-02T14:53:06.297Z,8.53
2022-12-02T14:55:33.272Z,8.60
2022-12-02T14:58:00.192Z,8.65
2022-12-02T15:00:27.165Z,8.61
2022-12-02T15:02:54.232Z,8.55
2022-12-02T15:05:23.075Z,8.56
2022-12-02T15:07:50.159Z,8.53
2022-12-02T15:10:17.742Z,8.54
2022-12-02T15:12:44.734Z,8.50
2022-12-02T15:17:59.037Z,8.44
2022-12-02T15:20:27.312Z,8.39
2022-12-02T15:22:54.507Z,8.40
2022-12-02T15:25:21.567Z,8.39
2022-12-02T15:27:48.565Z,8.44
2022-12-02T15:30:16.042Z,8.51
2022-12-02T15:32:44.796Z,8.55
2022-12-02T15:35:12.250Z,8.61
2022-12-02T15:37:40.894Z,8.67
2022-12-02T15:40:10.923Z,8.73
2022-12-02T15:42:38.007Z,8.74
2022-12-02T15:45:06.137Z,8.74
2022-12-02T15:47:33.114Z,8.73
2022-12-02T15:50:00.467Z,8.72
2022-12-02T15:52:27.487Z,8.75
2022-12-02T15:54:55.856Z,8.78
2022-12-02T15:57:23.711Z,8.78
2022-12-02T15:59:50.731Z,8.75
2022-12-02T16:02:17.737Z,8.70
2022-12-02T16:04:44.698Z,8.68
2022-12-02T16:07:11.689Z,8.67
2022-12-02T16:09:38.738Z,8.58
2022-12-02T16:12:08.175Z,8.57
2022-12-02T16:14:35.270Z,8.61
2022-12-02T16:17:02.327Z,8.67
2022-12-02T16:19:29.273Z,8.73
2022-12-02T16:21:56.348Z,8.77
2022-12-02T16:24:23.292Z,8.82
2022-12-02T16:26:55.192Z,8.81
2022-12-02T16:29:24.404Z,8.75
2022-12-02T16:31:51.485Z,8.73
2022-12-02T16:34:18.451Z,8.71
2022-12-02T16:36:45.423Z,8.75
2022-12-02T16:39:12.440Z,8.80
2022-12-02T16:41:39.469Z,8.81
2022-12-02T16:44:06.470Z,8.79
2022-12-02T16:46:36.699Z,8.70
2022-12-02T16:49:05.201Z,8.69
2022-12-02T16:51:32.286Z,8.72
2022-12-02T16:53:59.255Z,8.75
2022-12-02T16:56:26.210Z,8.85
2022-12-02T16:58:53.129Z,8.93
2022-12-02T17:01:20.106Z,8.99
2022-12-02T17:03:48.463Z,8.97
2022-12-02T17:06:15.474Z,8.92
2022-12-02T17:08:42.432Z,8.89
2022-12-02T17:11:09.510Z,8.84
2022-12-02T17:13:36.818Z,8.82
2022-12-02T17:16:04.166Z,8.78
2022-12-02T17:18:31.180Z,8.76
2022-12-02T17:20:59.552Z,8.80
2022-12-02T17:23:26.510Z,8.82
2022-12-02T17:25:53.526Z,8.80
2022-12-02T17:28:22.222Z,8.84
2022-12-02T17:30:49.324Z,8.83
2022-12-02T17:33:17.951Z,8.85
2022-12-02T17:35:44.932Z,8.82
2022-12-02T17:38:13.466Z,8.73
2022-12-02T17:40:40.391Z,8.73
2022-12-02T17:43:07.380Z,8.72
2022-12-02T17:45:34.447Z,8.74
2022-12-02T17:48:01.424Z,8.77
2022-12-02T17:50:28.344Z,8.74
2022-12-02T17:52:55.359Z,8.70
2022-12-02T17:55:24.192Z,8.73
2022-12-02T17:57:51.329Z,8.77
2022-12-02T18:00:19.277Z,8.79
2022-12-02T18:02:46.293Z,8.84
2022-12-02T18:05:13.292Z,8.85
2022-12-02T18:07:40.253Z,8.84
2022-12-02T18:10:08.063Z,8.87
2022-12-02T18:12:36.445Z,8.86
2022-12-02T18:15:04.401Z,8.89
2022-12-02T18:17:31.386Z,8.94
2022-12-02T18:19:58.338Z,8.97
2022-12-02T18:22:25.307Z,8.98
2022-12-02T18:24:52.613Z,9.00
2022-12-02T18:27:19.814Z,8.96
2022-12-02T18:29:48.205Z,8.99
2022-12-02T18:32:15.185Z,9.02
2022-12-02T18:34:42.192Z,9.02
2022-12-02T18:37:12.211Z,8.99
2022-12-02T18:39:39.553Z,8.97
2022-12-02T18:42:07.035Z,8.93
2022-12-02T18:44:34.060Z,8.90
2022-12-02T18:47:05.128Z,8.89
2022-12-02T18:49:32.095Z,8.92
2022-12-02T18:51:59.149Z,8.95
2022-12-02T18:54:26.169Z,8.93
2022-12-02T18:56:53.114Z,8.92
2022-12-02T18:59:20.126Z,8.90
2022-12-02T19:01:47.308Z,8.88
2022-12-02T19:04:15.682Z,8.86
2022-12-02T19:06:42.777Z,8.87
2022-12-02T19:09:09.805Z,8.92
2022-12-02T19:11:36.782Z,8.98
2022-12-02T19:14:03.777Z,8.99
2022-12-02T19:16:30.847Z,9.02
2022-12-02T19:18:58.057Z,9.03
2022-12-02T19:21:26.567Z,9.09
2022-12-02T19:23:53.649Z,9.10
2022-12-02T19:26:21.784Z,9.09
2022-12-02T19:28:48.768Z,9.11
2022-12-02T19:31:15.869Z,9.14
2022-12-02T19:33:42.900Z,9.15
2022-12-02T19:36:10.074Z,9.20
2022-12-02T19:38:38.380Z,9.24
2022-12-02T19:41:05.656Z,9.28
2022-12-02T19:43:35.944Z,9.35
2022-12-02T19:46:03.521Z,9.41
2022-12-02T19:48:30.696Z,9.47
2022-12-02T19:50:57.689Z,9.52
2022-12-02T19:53:24.704Z,9.56
2022-12-02T19:55:53.027Z,9.61
2022-12-02T19:58:20.096Z,9.60
2022-12-02T20:00:47.073Z,9.59
2022-12-02T20:03:14.084Z,9.61
2022-12-02T20:05:41.023Z,9.58
2022-12-02T20:08:08.237Z,9.53
2022-12-02T20:10:35.383Z,9.51
2022-12-02T20:13:03.900Z,9.49
2022-12-02T20:15:31.095Z,9.45
2022-12-02T20:17:58.075Z,9.44
2022-12-02T20:20:25.066Z,9.43
2022-12-02T20:22:52.611Z,9.43
2022-12-02T20:25:19.560Z,9.44
2022-12-02T20:27:52.754Z,9.49
2022-12-02T20:30:23.394Z,9.51
2022-12-02T20:32:50.468Z,9.55
2022-12-02T20:35:17.683Z,9.61
2022-12-02T20:37:44.731Z,9.63
2022-12-02T20:40:14.320Z,9.61
2022-12-02T20:42:41.858Z,9.62
2022-12-02T20:45:11.458Z,9.62
2022-12-02T20:47:39.824Z,9.68
2022-12-02T20:50:08.830Z,9.74
2022-12-02T20:52:35.815Z,9.80
2022-12-02T20:55:06.307Z,9.85
2022-12-02T20:57:33.311Z,9.84
2022-12-02T21:00:00.403Z,9.87
2022-12-02T21:02:27.784Z,9.88
2022-12-02T21:04:56.145Z,9.88
2022-12-02T21:07:23.085Z,9.89
2022-12-02T21:09:50.975Z,9.89
2022-12-02T21:12:18.043Z,9.90
2022-12-02T21:14:45.066Z,9.89
2022-12-02T21:17:12.091Z,9.86
2022-12-02T21:19:39.099Z,9.81
2022-12-02T21:22:07.441Z,9.82
2022-12-02T21:24:34.515Z,9.82
2022-12-02T21:27:01.509Z,9.82
2022-12-02T21:29:28.500Z,9.80
2022-12-02T21:31:55.583Z,9.83
2022-12-02T21:34:22.683Z,9.86
2022-12-02T21:36:49.623Z,9.90
2022-12-02T21:39:17.998Z,9.86
2022-12-02T21:41:44.953Z,9.80
2022-12-02T21:44:11.950Z,9.74
2022-12-02T21:46:38.935Z,9.72
2022-12-02T21:49:06.035Z,9.68
2022-12-02T21:51:32.942Z,9.64
2022-12-02T21:53:59.878Z,9.64
2022-12-02T21:56:33.274Z,9.60
2022-12-02T21:59:03.265Z,9.54
2022-12-02T22:01:40.719Z,9.49
2022-12-02T22:04:11.879Z,9.38
2022-12-02T22:06:38.995Z,9.34
2022-12-02T22:09:06.916Z,9.34
2022-12-02T22:11:36.209Z,9.32
2022-12-02T22:14:04.091Z,9.33
2022-12-02T22:16:32.038Z,9.35
2022-12-02T22:18:59.656Z,9.38
2022-12-02T22:21:26.818Z,9.40
2022-12-02T22:23:53.804Z,9.43
2022-12-02T22:26:20.888Z,9.41
2022-12-02T22:28:49.223Z,9.43
2022-12-02T22:31:16.174Z,9.33
2022-12-02T22:33:43.240Z,9.30
2022-12-02T22:36:10.229Z,9.33
2022-12-02T22:38:37.182Z,9.36
2022-12-02T22:41:04.423Z,9.33
2022-12-02T22:43:31.398Z,9.31
2022-12-02T22:45:59.813Z,9.32
2022-12-02T22:48:26.872Z,9.29
2022-12-02T22:50:53.927Z,9.27
2022-12-02T22:53:20.988Z,9.21
2022-12-02T22:55:47.966Z,9.22
2022-12-02T22:58:15.059Z,9.29
2022-12-02T23:00:42.223Z,9.30
2022-12-02T23:03:10.504Z,9.33
2022-12-02T23:05:37.860Z,9.35
2022-12-02T23:08:05.307Z,9.33
2022-12-02T23:10:32.403Z,9.33
2022-12-02T23:12:59.474Z,9.34
2022-12-02T23:15:41.924Z,9.32
2022-12-02T23:18:10.456Z,9.31
2022-12-02T23:20:37.530Z,9.32
2022-12-02T23:23:04.608Z,9.31
2022-12-02T23:25:32.070Z,9.32
2022-12-02T23:27:59.079Z,9.31
2022-12-02T23:30:29.153Z,9.28
2022-12-02T23:32:57.366Z,9.29
2022-12-02T23:35:26.198Z,9.32
2022-12-02T23:37:53.162Z,9.29
2022-12-02T23:40:20.651Z,9.28
2022-12-02T23:42:47.582Z,9.24
2022-12-02T23:45:14.545Z,9.22
2022-12-02T23:47:41.538Z,9.16
2022-12-02T23:50:09.483Z,9.17
2022-12-02T23:52:37.794Z,9.19
2022-12-02T23:55:06.224Z,9.25
2022-12-02T23:57:33.269Z,9.29
